createdAt,value
2017-06-17T00:00:11.074Z,1018.02
2017-06-17T00:00:37.174Z,1017.98
2017-06-17T00:01:03.315Z,1018
2017-06-17T00:01:29.417Z,1018.01
2017-06-17T00:01:55.549Z,1018.02
2017-06-17T00:02:21.787Z,1017.97
2017-06-17T00:02:47.888Z,1017.99
2017-06-17T00:03:14.049Z,1017.98
2017-06-17T00:03:40.138Z,1018
2017-06-17T00:04:06.260Z,1018.02
2017-06-17T00:04:32.363Z,1018.01
2017-06-17T00:04:58.456Z,1018.03
2017-06-17T00:05:24.560Z,1018
2017-06-17T00:05:50.657Z,1018.01
2017-06-17T00:06:16.747Z,1018.02
2017-06-17T00:06:42.924Z,1018.01
2017-06-17T00:07:09.015Z,1018.03
2017-06-17T00:07:35.137Z,1018.03
2017-06-17T00:08:01.242Z,1018.05
2017-06-17T00:08:27.365Z,1018.03
2017-06-17T00:08:53.456Z,1018.03
2017-06-17T00:09:19.565Z,1018.03
2017-06-17T00:09:45.664Z,1018.05
2017-06-17T00:10:11.777Z,1018.03
2017-06-17T00:10:37.913Z,1018.03
2017-06-17T00:11:04.033Z,1018.05
2017-06-17T00:11:30.140Z,1018.04
2017-06-17T00:11:56.234Z,1018.03
2017-06-17T00:12:22.324Z,1018.06
2017-06-17T00:12:48.432Z,1018.04
2017-06-17T00:13:14.527Z,1018.07
2017-06-17T00:13:40.619Z,1018.05
2017-06-17T00:14:06.727Z,1018.05
2017-06-17T00:14:32.826Z,1018.04
2017-06-17T00:14:58.941Z,1018
2017-06-17T00:15:25.067Z,1018.05
2017-06-17T00:15:51.171Z,1018
2017-06-17T00:16:17.265Z,1018.04
2017-06-17T00:16:43.362Z,1018.04
2017-06-17T00:17:09.500Z,1018.04
2017-06-17T00:17:35.607Z,1018.03
2017-06-17T00:18:01.704Z,1018.05
2017-06-17T00:18:27.794Z,1018.06
2017-06-17T00:18:53.924Z,1018.07
2017-06-17T00:19:20.029Z,1018.04
2017-06-17T00:19:46.141Z,1018.08
2017-06-17T00:20:12.265Z,1018.1
2017-06-17T00:20:38.369Z,1018.11
2017-06-17T00:21:04.458Z,1018.13
2017-06-17T00:21:30.556Z,1018.15
2017-06-17T00:21:56.653Z,1018.1
2017-06-17T00:22:22.753Z,1018.13
2017-06-17T00:22:48.859Z,1018.14
2017-06-17T00:23:14.945Z,1018.13
2017-06-17T00:23:41.069Z,1018.15
2017-06-17T00:24:07.200Z,1018.09
2017-06-17T00:24:33.345Z,1018.13
2017-06-17T00:24:59.466Z,1018.09
2017-06-17T00:25:25.574Z,1018.11
2017-06-17T00:25:51.667Z,1018.13
2017-06-17T00:26:17.758Z,1018.14
2017-06-17T00:26:43.866Z,1018.12
2017-06-17T00:27:10.018Z,1018.13
2017-06-17T00:27:36.110Z,1018.13
2017-06-17T00:28:02.216Z,1018.11
2017-06-17T00:28:28.316Z,1018.13
2017-06-17T00:28:54.406Z,1018.11
2017-06-17T00:29:20.508Z,1018.15
2017-06-17T00:29:46.644Z,1018.15
2017-06-17T00:30:12.730Z,1018.15
2017-06-17T00:30:38.827Z,1018.15
2017-06-17T00:31:04.935Z,1018.12
2017-06-17T00:31:31.024Z,1018.14
2017-06-17T00:31:57.143Z,1018.12
2017-06-17T00:32:23.250Z,1018.16
2017-06-17T00:32:49.343Z,1018.15
2017-06-17T00:33:15.447Z,1018.18
2017-06-17T00:33:41.534Z,1018.15
2017-06-17T00:34:07.634Z,1018.15
2017-06-17T00:34:33.738Z,1018.12
2017-06-17T00:34:59.829Z,1018.14
2017-06-17T00:35:25.950Z,1018.13
2017-06-17T00:35:52.055Z,1018.14
2017-06-17T00:36:18.147Z,1018.13
2017-06-17T00:36:44.239Z,1018.14
2017-06-17T00:37:10.373Z,1018.17
2017-06-17T00:37:36.469Z,1018.19
2017-06-17T00:38:02.559Z,1018.17
2017-06-17T00:38:28.665Z,1018.18
2017-06-17T00:38:54.758Z,1018.19
2017-06-17T00:39:20.861Z,1018.17
2017-06-17T00:39:46.955Z,1018.16
2017-06-17T00:40:13.068Z,1018.2
2017-06-17T00:40:39.177Z,1018.15
2017-06-17T00:41:05.274Z,1018.19
2017-06-17T00:41:31.413Z,1018.18
2017-06-17T00:41:57.545Z,1018.21
2017-06-17T00:42:23.643Z,1018.19
2017-06-17T00:42:49.733Z,1018.19
2017-06-17T00:43:15.838Z,1018.24
2017-06-17T00:43:41.942Z,1018.21
2017-06-17T00:44:08.060Z,1018.22
2017-06-17T00:44:34.157Z,1018.17
2017-06-17T00:45:00.246Z,1018.19
2017-06-17T00:45:26.351Z,1018.2
2017-06-17T00:45:52.451Z,1018.2
2017-06-17T00:46:18.565Z,1018.23
2017-06-17T00:46:44.671Z,1018.21
2017-06-17T00:47:10.830Z,1018.16
2017-06-17T00:47:36.916Z,1018.2
2017-06-17T00:48:03.039Z,1018.19
2017-06-17T00:48:29.174Z,1018.2
2017-06-17T00:48:55.263Z,1018.18
2017-06-17T00:49:21.360Z,1018.19
2017-06-17T00:49:47.483Z,1018.2
2017-06-17T00:50:13.586Z,1018.18
2017-06-17T00:50:39.689Z,1018.17
2017-06-17T00:51:05.775Z,1018.22
2017-06-17T00:51:31.877Z,1018.2
2017-06-17T00:51:58.009Z,1018.22
2017-06-17T00:52:24.099Z,1018.22
2017-06-17T00:52:50.197Z,1018.26
2017-06-17T00:53:16.302Z,1018.26
2017-06-17T00:53:42.395Z,1018.22
2017-06-17T00:54:08.510Z,1018.24
2017-06-17T00:54:34.618Z,1018.26
2017-06-17T00:55:00.712Z,1018.24
2017-06-17T00:55:26.816Z,1018.25
2017-06-17T00:55:52.905Z,1018.25
2017-06-17T00:56:19.000Z,1018.23
2017-06-17T00:56:45.107Z,1018.23
2017-06-17T00:57:11.200Z,1018.25
2017-06-17T00:57:37.289Z,1018.25
2017-06-17T00:58:03.398Z,1018.27
2017-06-17T00:58:29.493Z,1018.23
2017-06-17T00:58:55.582Z,1018.25
2017-06-17T00:59:21.687Z,1018.22
2017-06-17T00:59:47.788Z,1018.24
2017-06-17T01:00:13.878Z,1018.26
2017-06-17T01:00:39.981Z,1018.22
2017-06-17T01:01:06.072Z,1018.23
2017-06-17T01:01:32.208Z,1018.23
2017-06-17T01:01:58.305Z,1018.25
2017-06-17T01:02:24.396Z,1018.21
2017-06-17T01:02:50.527Z,1018.23
2017-06-17T01:03:16.625Z,1018.28
2017-06-17T01:03:42.739Z,1018.26
2017-06-17T01:04:08.870Z,1018.26
2017-06-17T01:04:34.977Z,1018.27
2017-06-17T01:05:01.063Z,1018.27
2017-06-17T01:05:27.160Z,1018.29
2017-06-17T01:05:53.268Z,1018.28
2017-06-17T01:06:19.355Z,1018.29
2017-06-17T01:06:45.458Z,1018.28
2017-06-17T01:07:11.573Z,1018.32
2017-06-17T01:07:37.703Z,1018.28
2017-06-17T01:08:03.810Z,1018.29
2017-06-17T01:08:29.896Z,1018.34
2017-06-17T01:08:55.994Z,1018.29
2017-06-17T01:09:22.100Z,1018.31
2017-06-17T01:09:48.190Z,1018.29
2017-06-17T01:10:14.362Z,1018.28
2017-06-17T01:10:40.470Z,1018.27
2017-06-17T01:11:06.563Z,1018.35
2017-06-17T01:11:32.654Z,1018.3
2017-06-17T01:11:58.792Z,1018.29
2017-06-17T01:12:24.886Z,1018.27
2017-06-17T01:12:50.974Z,1018.31
2017-06-17T01:13:17.081Z,1018.29
2017-06-17T01:13:43.184Z,1018.26
2017-06-17T01:14:09.275Z,1018.3
2017-06-17T01:14:35.375Z,1018.28
2017-06-17T01:15:01.538Z,1018.3
2017-06-17T01:15:27.651Z,1018.28
2017-06-17T01:15:53.751Z,1018.25
2017-06-17T01:16:19.856Z,1018.24
2017-06-17T01:16:45.970Z,1018.26
2017-06-17T01:17:12.095Z,1018.23
2017-06-17T01:17:38.191Z,1018.25
2017-06-17T01:18:04.294Z,1018.26
2017-06-17T01:18:30.429Z,1018.21
2017-06-17T01:18:56.535Z,1018.21
2017-06-17T01:19:22.636Z,1018.23
2017-06-17T01:19:48.740Z,1018.26
2017-06-17T01:20:14.832Z,1018.25
2017-06-17T01:20:40.930Z,1018.24
2017-06-17T01:21:07.062Z,1018.26
2017-06-17T01:21:33.178Z,1018.25
2017-06-17T01:21:59.266Z,1018.23
2017-06-17T01:22:25.401Z,1018.25
2017-06-17T01:22:51.610Z,1018.23
2017-06-17T01:23:17.862Z,1018.25
2017-06-17T01:23:44.103Z,1018.23
2017-06-17T01:24:10.394Z,1018.2
2017-06-17T01:24:36.725Z,1018.22
2017-06-17T01:25:03.079Z,1018.22
2017-06-17T01:25:29.475Z,1018.19
2017-06-17T01:25:55.749Z,1018.22
2017-06-17T01:26:21.940Z,1018.22
2017-06-17T01:26:48.219Z,1018.24
2017-06-17T01:27:14.838Z,1018.23
2017-06-17T01:27:41.148Z,1018.23
2017-06-17T01:28:07.201Z,1018.22
2017-06-17T01:28:33.301Z,1018.23
2017-06-17T01:28:59.392Z,1018.21
2017-06-17T01:29:25.502Z,1018.2
2017-06-17T01:29:51.652Z,1018.23
2017-06-17T01:30:17.743Z,1018.24
2017-06-17T01:30:43.847Z,1018.29
2017-06-17T01:31:10.482Z,1018.25
2017-06-17T01:31:36.906Z,1018.26
2017-06-17T01:32:04.335Z,1018.26
2017-06-17T01:32:32.072Z,1018.29
2017-06-17T01:32:59.775Z,1018.25
2017-06-17T01:33:27.837Z,1018.27
2017-06-17T01:33:54.620Z,1018.27
2017-06-17T01:34:21.852Z,1018.28
2017-06-17T01:34:49.239Z,1018.26
2017-06-17T01:35:16.269Z,1018.27
2017-06-17T01:35:43.773Z,1018.27
2017-06-17T01:36:11.286Z,1018.27
2017-06-17T01:36:38.995Z,1018.24
2017-06-17T01:37:05.027Z,1018.29
2017-06-17T01:37:31.115Z,1018.26
2017-06-17T01:37:57.285Z,1018.29
2017-06-17T01:38:23.412Z,1018.27
2017-06-17T01:38:49.501Z,1018.29
2017-06-17T01:39:15.603Z,1018.28
2017-06-17T01:39:41.763Z,1018.31
2017-06-17T01:40:07.857Z,1018.28
2017-06-17T01:40:33.982Z,1018.33
2017-06-17T01:41:00.079Z,1018.31
2017-06-17T01:41:26.175Z,1018.32
2017-06-17T01:41:52.275Z,1018.3
2017-06-17T01:42:18.363Z,1018.31
2017-06-17T01:42:44.467Z,1018.32
2017-06-17T01:43:10.572Z,1018.34
2017-06-17T01:43:36.660Z,1018.36
2017-06-17T01:44:02.761Z,1018.3
2017-06-17T01:44:28.868Z,1018.33
2017-06-17T01:44:54.976Z,1018.34
2017-06-17T01:45:21.065Z,1018.33
2017-06-17T01:45:47.336Z,1018.3
2017-06-17T01:46:13.441Z,1018.32
2017-06-17T01:46:39.546Z,1018.35
2017-06-17T01:47:05.632Z,1018.3
2017-06-17T01:47:31.730Z,1018.31
2017-06-17T01:47:57.837Z,1018.36
2017-06-17T01:48:23.928Z,1018.36
2017-06-17T01:48:50.026Z,1018.35
2017-06-17T01:49:16.130Z,1018.38
2017-06-17T01:49:42.225Z,1018.41
2017-06-17T01:50:08.312Z,1018.39
2017-06-17T01:50:34.419Z,1018.37
2017-06-17T01:51:00.515Z,1018.34
2017-06-17T01:51:27.084Z,1018.29
2017-06-17T01:51:55.032Z,1018.35
2017-06-17T01:52:21.748Z,1018.35
2017-06-17T01:52:47.854Z,1018.29
2017-06-17T01:53:13.946Z,1018.31
2017-06-17T01:53:40.035Z,1018.32
2017-06-17T01:54:06.143Z,1018.3
2017-06-17T01:54:32.239Z,1018.29
2017-06-17T01:54:58.354Z,1018.29
2017-06-17T01:55:24.459Z,1018.31
2017-06-17T01:55:50.586Z,1018.35
2017-06-17T01:56:16.675Z,1018.33
2017-06-17T01:56:42.778Z,1018.33
2017-06-17T01:57:08.883Z,1018.32
2017-06-17T01:57:34.994Z,1018.31
2017-06-17T01:58:01.093Z,1018.32
2017-06-17T01:58:27.227Z,1018.33
2017-06-17T01:58:53.316Z,1018.32
2017-06-17T01:59:19.413Z,1018.31
2017-06-17T01:59:45.544Z,1018.29
2017-06-17T02:00:11.636Z,1018.26
2017-06-17T02:00:37.726Z,1018.3
2017-06-17T02:01:03.832Z,1018.28
2017-06-17T02:01:29.928Z,1018.26
2017-06-17T02:01:56.020Z,1018.25
2017-06-17T02:02:22.128Z,1018.24
2017-06-17T02:02:48.221Z,1018.22
2017-06-17T02:03:14.326Z,1018.24
2017-06-17T02:03:40.644Z,1018.25
2017-06-17T02:04:06.732Z,1018.24
2017-06-17T02:04:32.840Z,1018.23
2017-06-17T02:04:58.935Z,1018.23
2017-06-17T02:05:25.025Z,1018.26
2017-06-17T02:05:51.153Z,1018.25
2017-06-17T02:06:17.255Z,1018.22
2017-06-17T02:06:43.345Z,1018.21
2017-06-17T02:07:09.447Z,1018.23
2017-06-17T02:07:35.579Z,1018.23
2017-06-17T02:08:01.721Z,1018.23
2017-06-17T02:08:27.817Z,1018.23
2017-06-17T02:08:53.932Z,1018.26
2017-06-17T02:09:20.036Z,1018.23
2017-06-17T02:09:46.137Z,1018.27
2017-06-17T02:10:12.249Z,1018.24
2017-06-17T02:10:38.351Z,1018.25
2017-06-17T02:11:04.457Z,1018.26
2017-06-17T02:11:30.546Z,1018.26
2017-06-17T02:11:56.645Z,1018.26
2017-06-17T02:12:22.751Z,1018.28
2017-06-17T02:12:48.867Z,1018.27
2017-06-17T02:13:15.014Z,1018.24
2017-06-17T02:13:41.135Z,1018.22
2017-06-17T02:14:07.211Z,1018.26
2017-06-17T02:14:33.318Z,1018.27
2017-06-17T02:14:59.404Z,1018.23
2017-06-17T02:15:25.528Z,1018.22
2017-06-17T02:15:51.635Z,1018.2
2017-06-17T02:16:17.752Z,1018.21
2017-06-17T02:16:43.849Z,1018.14
2017-06-17T02:17:09.953Z,1018.23
2017-06-17T02:17:36.047Z,1018.17
2017-06-17T02:18:02.135Z,1018.18
2017-06-17T02:18:28.273Z,1018.21
2017-06-17T02:18:54.368Z,1018.16
2017-06-17T02:19:20.472Z,1018.21
2017-06-17T02:19:46.562Z,1018.2
2017-06-17T02:20:12.658Z,1018.22
2017-06-17T02:20:38.790Z,1018.23
2017-06-17T02:21:04.885Z,1018.17
2017-06-17T02:21:30.974Z,1018.17
2017-06-17T02:21:57.081Z,1018.15
2017-06-17T02:22:23.176Z,1018.14
2017-06-17T02:22:49.291Z,1018.12
2017-06-17T02:23:15.425Z,1018.11
2017-06-17T02:23:41.551Z,1018.09
2017-06-17T02:24:07.667Z,1018.11
2017-06-17T02:24:33.795Z,1018.11
2017-06-17T02:24:59.886Z,1018.12
2017-06-17T02:25:25.993Z,1018.1
2017-06-17T02:25:52.144Z,1018.09
2017-06-17T02:26:18.233Z,1018.08
2017-06-17T02:26:44.367Z,1018.02
2017-06-17T02:27:10.467Z,1018.03
2017-06-17T02:27:36.582Z,1018
2017-06-17T02:28:02.684Z,1018.03
2017-06-17T02:28:28.790Z,1018.01
2017-06-17T02:28:54.878Z,1017.97
2017-06-17T02:29:21.001Z,1018.02
2017-06-17T02:29:47.109Z,1018
2017-06-17T02:30:13.199Z,1018.05
2017-06-17T02:30:39.300Z,1018.07
2017-06-17T02:31:05.415Z,1018.07
2017-06-17T02:31:31.541Z,1018.06
2017-06-17T02:31:57.645Z,1018.09
2017-06-17T02:32:23.802Z,1018.07
2017-06-17T02:32:49.929Z,1018.03
2017-06-17T02:33:16.062Z,1018.05
2017-06-17T02:33:42.178Z,1018.02
2017-06-17T02:34:08.298Z,1018.04
2017-06-17T02:34:34.457Z,1018.08
2017-06-17T02:35:00.573Z,1018.07
2017-06-17T02:35:26.689Z,1018.09
2017-06-17T02:35:52.825Z,1018.05
2017-06-17T02:36:18.921Z,1018.06
2017-06-17T02:36:45.027Z,1018.11
2017-06-17T02:37:11.139Z,1018.08
2017-06-17T02:37:37.234Z,1018.09
2017-06-17T02:38:03.367Z,1018.05
2017-06-17T02:38:29.488Z,1018.05
2017-06-17T02:38:55.579Z,1018.04
2017-06-17T02:39:21.687Z,1018.05
2017-06-17T02:39:47.809Z,1018.02
2017-06-17T02:40:13.900Z,1018.03
2017-06-17T02:40:40.007Z,1017.99
2017-06-17T02:41:06.107Z,1018
2017-06-17T02:41:32.196Z,1018
2017-06-17T02:41:58.298Z,1017.97
2017-06-17T02:42:24.405Z,1018
2017-06-17T02:42:50.492Z,1017.92
2017-06-17T02:43:16.594Z,1018
2017-06-17T02:43:42.728Z,1018.02
2017-06-17T02:44:08.819Z,1017.97
2017-06-17T02:44:34.916Z,1018.01
2017-06-17T02:45:01.022Z,1018
2017-06-17T02:45:27.114Z,1018.05
2017-06-17T02:45:53.205Z,1018.04
2017-06-17T02:46:19.314Z,1018.03
2017-06-17T02:46:45.411Z,1018.01
2017-06-17T02:47:11.511Z,1017.98
2017-06-17T02:47:37.629Z,1017.96
2017-06-17T02:48:03.725Z,1018
2017-06-17T02:48:29.832Z,1017.96
2017-06-17T02:48:55.952Z,1017.94
2017-06-17T02:49:22.069Z,1017.93
2017-06-17T02:49:48.178Z,1017.96
2017-06-17T02:50:14.301Z,1017.95
2017-06-17T02:50:40.391Z,1017.95
2017-06-17T02:51:06.497Z,1017.92
2017-06-17T02:51:32.624Z,1017.96
2017-06-17T02:51:58.713Z,1017.94
2017-06-17T02:52:24.819Z,1017.97
2017-06-17T02:52:50.910Z,1017.94
2017-06-17T02:53:17.045Z,1017.93
2017-06-17T02:53:43.151Z,1017.95
2017-06-17T02:54:09.242Z,1017.94
2017-06-17T02:54:35.351Z,1017.96
2017-06-17T02:55:01.450Z,1017.97
2017-06-17T02:55:27.539Z,1017.95
2017-06-17T02:55:53.640Z,1017.94
2017-06-17T02:56:19.773Z,1017.95
2017-06-17T02:56:45.860Z,1017.97
2017-06-17T02:57:12.010Z,1017.97
2017-06-17T02:57:38.116Z,1017.94
2017-06-17T02:58:04.231Z,1018.01
2017-06-17T02:58:30.333Z,1018.02
2017-06-17T02:58:56.422Z,1017.98
2017-06-17T02:59:22.524Z,1017.99
2017-06-17T02:59:48.628Z,1017.95
2017-06-17T03:00:14.717Z,1018.01
2017-06-17T03:00:40.844Z,1017.96
2017-06-17T03:01:06.948Z,1017.96
2017-06-17T03:01:33.036Z,1017.99
2017-06-17T03:01:59.131Z,1017.98
2017-06-17T03:02:25.239Z,1017.97
2017-06-17T03:02:51.332Z,1017.99
2017-06-17T03:03:17.424Z,1018.03
2017-06-17T03:03:43.528Z,1018.04
2017-06-17T03:04:09.652Z,1018.02
2017-06-17T03:04:35.758Z,1018.02
2017-06-17T03:05:01.849Z,1018.01
2017-06-17T03:05:27.981Z,1018.02
2017-06-17T03:05:54.087Z,1018.03
2017-06-17T03:06:20.180Z,1018.06
2017-06-17T03:06:46.270Z,1018.05
2017-06-17T03:07:12.381Z,1018.08
2017-06-17T03:07:38.476Z,1018.04
2017-06-17T03:08:04.567Z,1017.99
2017-06-17T03:08:30.702Z,1018.05
2017-06-17T03:08:56.802Z,1018.03
2017-06-17T03:09:22.903Z,1018.02
2017-06-17T03:09:49.019Z,1018.02
2017-06-17T03:10:15.109Z,1018.07
2017-06-17T03:10:41.220Z,1018.03
2017-06-17T03:11:07.344Z,1018.05
2017-06-17T03:11:33.434Z,1018.07
2017-06-17T03:11:59.540Z,1018.05
2017-06-17T03:12:25.668Z,1018.06
2017-06-17T03:12:51.758Z,1018.07
2017-06-17T03:13:17.860Z,1018.07
2017-06-17T03:13:43.968Z,1018.12
2017-06-17T03:14:10.056Z,1018.11
2017-06-17T03:14:36.153Z,1018.08
2017-06-17T03:15:02.247Z,1018.12
2017-06-17T03:15:28.379Z,1018.09
2017-06-17T03:15:54.477Z,1018.12
2017-06-17T03:16:20.566Z,1018.16
2017-06-17T03:16:46.694Z,1018.12
2017-06-17T03:17:12.799Z,1018.17
2017-06-17T03:17:38.910Z,1018.16
2017-06-17T03:18:05.036Z,1018.2
2017-06-17T03:18:31.142Z,1018.21
2017-06-17T03:18:57.257Z,1018.21
2017-06-17T03:19:23.352Z,1018.21
2017-06-17T03:19:49.460Z,1018.23
2017-06-17T03:20:15.554Z,1018.2
2017-06-17T03:20:41.660Z,1018.18
2017-06-17T03:21:07.746Z,1018.18
2017-06-17T03:21:33.846Z,1018.17
2017-06-17T03:21:59.953Z,1018.17
2017-06-17T03:22:26.069Z,1018.15
2017-06-17T03:22:52.187Z,1018.14
2017-06-17T03:23:18.349Z,1018.14
2017-06-17T03:23:44.443Z,1018.11
2017-06-17T03:24:10.532Z,1018.13
2017-06-17T03:24:36.641Z,1018.12
2017-06-17T03:25:02.737Z,1018.13
2017-06-17T03:25:28.828Z,1018.12
2017-06-17T03:25:54.956Z,1018.11
2017-06-17T03:26:21.057Z,1018.12
2017-06-17T03:26:47.146Z,1018.14
2017-06-17T03:27:13.247Z,1018.14
2017-06-17T03:27:39.354Z,1018.13
2017-06-17T03:28:05.441Z,1018.12
2017-06-17T03:28:31.540Z,1018.13
2017-06-17T03:28:57.674Z,1018.18
2017-06-17T03:29:23.764Z,1018.2
2017-06-17T03:29:49.860Z,1018.18
2017-06-17T03:30:15.968Z,1018.18
2017-06-17T03:30:42.060Z,1018.21
2017-06-17T03:31:08.152Z,1018.2
2017-06-17T03:31:34.254Z,1018.19
2017-06-17T03:32:00.354Z,1018.19
2017-06-17T03:32:26.461Z,1018.19
2017-06-17T03:32:52.553Z,1018.17
2017-06-17T03:33:18.650Z,1018.19
2017-06-17T03:33:44.812Z,1018.17
2017-06-17T03:34:10.933Z,1018.19
2017-06-17T03:34:37.046Z,1018.16
2017-06-17T03:35:03.157Z,1018.17
2017-06-17T03:35:29.281Z,1018.17
2017-06-17T03:35:55.371Z,1018.15
2017-06-17T03:36:21.474Z,1018.13
2017-06-17T03:36:47.573Z,1018.15
2017-06-17T03:37:13.672Z,1018.14
2017-06-17T03:37:39.767Z,1018.13
2017-06-17T03:38:05.857Z,1018.14
2017-06-17T03:38:31.995Z,1018.12
2017-06-17T03:38:58.091Z,1018.16
2017-06-17T03:39:24.180Z,1018.13
2017-06-17T03:39:50.284Z,1018.11
2017-06-17T03:40:16.385Z,1018.12
2017-06-17T03:40:42.475Z,1018.12
2017-06-17T03:41:08.576Z,1018.09
2017-06-17T03:41:34.710Z,1018.12
2017-06-17T03:42:00.823Z,1018.07
2017-06-17T03:42:26.923Z,1018.05
2017-06-17T03:42:53.016Z,1018.07
2017-06-17T03:43:19.148Z,1018.08
2017-06-17T03:43:45.246Z,1018.07
2017-06-17T03:44:11.336Z,1018.1
2017-06-17T03:44:37.440Z,1018.07
2017-06-17T03:45:03.544Z,1018.08
2017-06-17T03:45:29.632Z,1018.01
2017-06-17T03:45:55.732Z,1018.04
2017-06-17T03:46:21.839Z,1018.03
2017-06-17T03:46:47.955Z,1018.04
2017-06-17T03:47:14.053Z,1018.05
2017-06-17T03:47:40.159Z,1018
2017-06-17T03:48:06.252Z,1017.98
2017-06-17T03:48:32.361Z,1018.02
2017-06-17T03:48:58.473Z,1018.05
2017-06-17T03:49:24.572Z,1017.98
2017-06-17T03:49:50.708Z,1018.04
2017-06-17T03:50:16.822Z,1018
2017-06-17T03:50:42.918Z,1018.03
2017-06-17T03:51:09.022Z,1018.04
2017-06-17T03:51:35.114Z,1018.07
2017-06-17T03:52:01.205Z,1018.01
2017-06-17T03:52:27.313Z,1018.05
2017-06-17T03:52:53.409Z,1018.04
2017-06-17T03:53:19.502Z,1018.04
2017-06-17T03:53:45.607Z,1018.04
2017-06-17T03:54:11.701Z,1018.06
2017-06-17T03:54:37.807Z,1018.05
2017-06-17T03:55:03.926Z,1018.04
2017-06-17T03:55:30.016Z,1018.02
2017-06-17T03:55:56.152Z,1018.03
2017-06-17T03:56:22.277Z,1018.06
2017-06-17T03:56:48.367Z,1018.03
2017-06-17T03:57:14.471Z,1018.02
2017-06-17T03:57:40.572Z,1018.05
2017-06-17T03:58:06.658Z,1018.06
2017-06-17T03:58:32.760Z,1018.09
2017-06-17T03:58:58.867Z,1018.1
2017-06-17T03:59:24.987Z,1018.12
2017-06-17T03:59:51.139Z,1018.15
2017-06-17T04:00:17.228Z,1018.17
2017-06-17T04:00:43.330Z,1018.17
2017-06-17T04:01:09.428Z,1018.19
2017-06-17T04:01:35.519Z,1018.16
2017-06-17T04:02:01.651Z,1018.19
2017-06-17T04:02:27.759Z,1018.11
2017-06-17T04:02:53.847Z,1018.17
2017-06-17T04:03:19.969Z,1018.16
2017-06-17T04:03:46.075Z,1018.13
2017-06-17T04:04:12.190Z,1018.16
2017-06-17T04:04:38.286Z,1018.12
2017-06-17T04:05:04.382Z,1018.09
2017-06-17T04:05:30.515Z,1018.15
2017-06-17T04:05:56.649Z,1018.07
2017-06-17T04:06:22.759Z,1018.1
2017-06-17T04:06:48.859Z,1018.12
2017-06-17T04:07:14.965Z,1018.08
2017-06-17T04:07:41.078Z,1018.09
2017-06-17T04:08:07.174Z,1018.11
2017-06-17T04:08:33.279Z,1018.07
2017-06-17T04:08:59.373Z,1018.1
2017-06-17T04:09:25.463Z,1018.04
2017-06-17T04:09:51.571Z,1018.06
2017-06-17T04:10:17.668Z,1018.08
2017-06-17T04:10:43.758Z,1018.08
2017-06-17T04:11:09.863Z,1018.07
2017-06-17T04:11:35.988Z,1018.08
2017-06-17T04:12:02.078Z,1018.07
2017-06-17T04:12:28.182Z,1018.1
2017-06-17T04:12:54.287Z,1018.11
2017-06-17T04:13:20.400Z,1018.12
2017-06-17T04:13:46.545Z,1018.1
2017-06-17T04:14:12.650Z,1018.1
2017-06-17T04:14:38.768Z,1018.1
2017-06-17T04:15:04.863Z,1018.1
2017-06-17T04:15:30.967Z,1018.12
2017-06-17T04:15:57.084Z,1018.11
2017-06-17T04:16:23.193Z,1018.15
2017-06-17T04:16:49.280Z,1018.12
2017-06-17T04:17:15.378Z,1018.13
2017-06-17T04:17:41.513Z,1018.17
2017-06-17T04:18:07.605Z,1018.19
2017-06-17T04:18:33.701Z,1018.15
2017-06-17T04:18:59.837Z,1018.19
2017-06-17T04:19:25.931Z,1018.16
2017-06-17T04:19:52.021Z,1018.2
2017-06-17T04:20:18.129Z,1018.21
2017-06-17T04:20:44.226Z,1018.19
2017-06-17T04:21:10.341Z,1018.25
2017-06-17T04:21:36.474Z,1018.26
2017-06-17T04:22:02.565Z,1018.28
2017-06-17T04:22:28.670Z,1018.28
2017-06-17T04:22:54.787Z,1018.31
2017-06-17T04:23:20.926Z,1018.3
2017-06-17T04:23:47.034Z,1018.26
2017-06-17T04:24:13.130Z,1018.3
2017-06-17T04:24:39.220Z,1018.3
2017-06-17T04:25:05.354Z,1018.28
2017-06-17T04:25:31.451Z,1018.28
2017-06-17T04:25:57.564Z,1018.27
2017-06-17T04:26:23.643Z,1018.28
2017-06-17T04:26:49.751Z,1018.25
2017-06-17T04:27:15.866Z,1018.27
2017-06-17T04:27:41.965Z,1018.26
2017-06-17T04:28:08.080Z,1018.26
2017-06-17T04:28:34.211Z,1018.25
2017-06-17T04:29:00.311Z,1018.26
2017-06-17T04:29:26.401Z,1018.27
2017-06-17T04:29:52.504Z,1018.29
2017-06-17T04:30:18.608Z,1018.29
2017-06-17T04:30:44.718Z,1018.27
2017-06-17T04:31:10.818Z,1018.24
2017-06-17T04:31:37.010Z,1018.27
2017-06-17T04:32:03.101Z,1018.25
2017-06-17T04:32:29.199Z,1018.25
2017-06-17T04:32:55.296Z,1018.27
2017-06-17T04:33:21.401Z,1018.28
2017-06-17T04:33:47.509Z,1018.27
2017-06-17T04:34:13.596Z,1018.28
2017-06-17T04:34:39.695Z,1018.31
2017-06-17T04:35:05.800Z,1018.24
2017-06-17T04:35:31.890Z,1018.26
2017-06-17T04:35:58.036Z,1018.27
2017-06-17T04:36:24.139Z,1018.27
2017-06-17T04:36:50.234Z,1018.26
2017-06-17T04:37:16.347Z,1018.27
2017-06-17T04:37:42.456Z,1018.28
2017-06-17T04:38:08.580Z,1018.25
2017-06-17T04:38:34.707Z,1018.24
2017-06-17T04:39:00.798Z,1018.26
2017-06-17T04:39:26.897Z,1018.28
2017-06-17T04:39:53.030Z,1018.28
2017-06-17T04:40:19.123Z,1018.28
2017-06-17T04:40:45.214Z,1018.31
2017-06-17T04:41:11.349Z,1018.29
2017-06-17T04:41:37.447Z,1018.28
2017-06-17T04:42:03.559Z,1018.28
2017-06-17T04:42:29.669Z,1018.3
2017-06-17T04:42:55.767Z,1018.32
2017-06-17T04:43:21.858Z,1018.28
2017-06-17T04:43:47.959Z,1018.29
2017-06-17T04:44:14.049Z,1018.28
2017-06-17T04:44:40.161Z,1018.27
2017-06-17T04:45:06.283Z,1018.28
2017-06-17T04:45:32.373Z,1018.32
2017-06-17T04:45:58.479Z,1018.31
2017-06-17T04:46:24.578Z,1018.34
2017-06-17T04:46:50.668Z,1018.34
2017-06-17T04:47:16.773Z,1018.37
2017-06-17T04:47:42.880Z,1018.33
2017-06-17T04:48:08.967Z,1018.33
2017-06-17T04:48:35.090Z,1018.3
2017-06-17T04:49:01.196Z,1018.34
2017-06-17T04:49:27.287Z,1018.34
2017-06-17T04:49:53.390Z,1018.32
2017-06-17T04:50:19.481Z,1018.32
2017-06-17T04:50:45.584Z,1018.29
2017-06-17T04:51:11.691Z,1018.3
2017-06-17T04:51:37.804Z,1018.28
2017-06-17T04:52:03.903Z,1018.29
2017-06-17T04:52:30.011Z,1018.29
2017-06-17T04:52:56.123Z,1018.28
2017-06-17T04:53:22.222Z,1018.27
2017-06-17T04:53:48.326Z,1018.32
2017-06-17T04:54:14.423Z,1018.29
2017-06-17T04:54:40.559Z,1018.3
2017-06-17T04:55:06.669Z,1018.3
2017-06-17T04:55:32.794Z,1018.38
2017-06-17T04:55:58.882Z,1018.31
2017-06-17T04:56:24.986Z,1018.33
2017-06-17T04:56:51.085Z,1018.35
2017-06-17T04:57:17.175Z,1018.36
2017-06-17T04:57:43.278Z,1018.37
2017-06-17T04:58:09.384Z,1018.34
2017-06-17T04:58:35.472Z,1018.36
2017-06-17T04:59:01.598Z,1018.36
2017-06-17T04:59:27.731Z,1018.37
2017-06-17T04:59:53.822Z,1018.4
2017-06-17T05:00:19.920Z,1018.38
2017-06-17T05:00:46.015Z,1018.38
2017-06-17T05:01:12.145Z,1018.36
2017-06-17T05:01:38.275Z,1018.37
2017-06-17T05:02:04.361Z,1018.39
2017-06-17T05:02:30.458Z,1018.38
2017-06-17T05:02:56.593Z,1018.39
2017-06-17T05:03:22.684Z,1018.34
2017-06-17T05:03:48.782Z,1018.36
2017-06-17T05:04:14.914Z,1018.35
2017-06-17T05:04:41.009Z,1018.37
2017-06-17T05:05:07.123Z,1018.35
2017-06-17T05:05:33.232Z,1018.36
2017-06-17T05:05:59.329Z,1018.36
2017-06-17T05:06:25.429Z,1018.38
2017-06-17T05:06:51.547Z,1018.41
2017-06-17T05:07:17.645Z,1018.43
2017-06-17T05:07:43.749Z,1018.41
2017-06-17T05:08:09.867Z,1018.4
2017-06-17T05:08:35.958Z,1018.41
2017-06-17T05:09:02.096Z,1018.41
2017-06-17T05:09:28.192Z,1018.43
2017-06-17T05:09:54.282Z,1018.47
2017-06-17T05:10:20.387Z,1018.45
2017-06-17T05:10:46.488Z,1018.48
2017-06-17T05:11:12.578Z,1018.46
2017-06-17T05:11:38.682Z,1018.47
2017-06-17T05:12:04.773Z,1018.37
2017-06-17T05:12:30.910Z,1018.41
2017-06-17T05:12:57.007Z,1018.44
2017-06-17T05:13:23.095Z,1018.44
2017-06-17T05:13:49.200Z,1018.45
2017-06-17T05:14:15.300Z,1018.44
2017-06-17T05:14:41.415Z,1018.42
2017-06-17T05:15:07.520Z,1018.48
2017-06-17T05:15:33.652Z,1018.46
2017-06-17T05:15:59.737Z,1018.46
2017-06-17T05:16:25.836Z,1018.48
2017-06-17T05:16:51.941Z,1018.48
2017-06-17T05:17:18.033Z,1018.45